KRKS

Rock Springs-Sweetwater County Airport

Rock Springs, Wyoming, USA
METAR KRKS 191054Z AUTO 15007KT 10SM CLR 11/M07 A3003 RMK AO2 SLP087 T01061072
Observed Flight Rules
Sep-19 @ 10:54 UTC (11 minutes ago) Visual Flight Rules
Wind Visibility Clouds
150° at 7 knots 10 miles
  • Clear skies
Temperatures Readings
Current 11°C / 52°F
Dewpoint -7°C / 19°F
Humidity 28%
Altimeter 30.03" Hg
Pressure 1008.7 hPa
Elevation 2060
METAR KRKS 191054Z AUTO 15007KT 10SM CLR 11/M07 A3003 RMK AO2 SLP087 T01061072
Observed Flight Rules
Sep-19 @ 10:54 UTC
(11 minutes ago)
VFR
Wind Visibility
150° at 7 knots 10 miles
Clouds
  • Clear skies
Temperature Dewpoint
11°C / 52°F -7°C / 19°F
Humidity Altimeter Pressure
28% 30.03" Hg 1008.7 hPa